Terminal Aerodrome Forecast
Issued by NWS

Home | Current Version | Previous Version | Text Only | Print | Product List | Glossary On
Versions: 1 2 3 4 5 6 7 8 9 10 11 12 13 14 15
604
FTAK31 PAJN 161123
TAFAPG
TAF
PAPG 161123Z 1612/1712 11005KT P6SM VCSH OVC100 WS020/14035KT
     FM161400 10008KT 6SM -RA BR SCT025 OVC040 WS020/14035KT
     FM162100 10006KT P6SM VCSH BKN040 OVC090 WS020/15035KT
     FM170900 12004KT P6SM VCFG SCT005 BKN050 WS020/16035KT
      AMD LTD TO CLD VIS AND WIND 1612/1615=

USA.gov is the U.S. government's official web portal to all federal, state and local government web resources and services.